sensor_id;sensor_type;location;lat;lon;timestamp;temperature;humidity
45807;DHT22;31507;51.494;7.518;2022-12-05T00:00:31;1.30;99.90
45807;DHT22;31507;51.494;7.518;2022-12-05T00:02:57;1.30;99.90
45807;DHT22;31507;51.494;7.518;2022-12-05T00:05:23;1.30;99.90
45807;DHT22;31507;51.494;7.518;2022-12-05T00:07:49;1.30;99.90
45807;DHT22;31507;51.494;7.518;2022-12-05T00:10:15;1.30;99.90
45807;DHT22;31507;51.494;7.518;2022-12-05T00:12:40;1.30;99.90
45807;DHT22;31507;51.494;7.518;2022-12-05T00:15:06;1.30;99.90
45807;DHT22;31507;51.494;7.518;2022-12-05T00:17:37;1.40;99.90
45807;DHT22;31507;51.494;7.518;2022-12-05T00:20:04;1.40;99.90
45807;DHT22;31507;51.494;7.518;2022-12-05T00:22:30;1.30;99.90
45807;DHT22;31507;51.494;7.518;2022-12-05T00:24:56;1.30;99.90
45807;DHT22;31507;51.494;7.518;2022-12-05T00:27:21;1.30;99.90
45807;DHT22;31507;51.494;7.518;2022-12-05T00:29:47;1.30;99.90
45807;DHT22;31507;51.494;7.518;2022-12-05T00:32:13;1.40;99.90
45807;DHT22;31507;51.494;7.518;2022-12-05T00:34:38;1.40;99.90
45807;DHT22;31507;51.494;7.518;2022-12-05T00:37:04;1.30;99.90
45807;DHT22;31507;51.494;7.518;2022-12-05T00:39:31;1.30;99.90
45807;DHT22;31507;51.494;7.518;2022-12-05T00:41:57;1.30;99.90
45807;DHT22;31507;51.494;7.518;2022-12-05T00:44:23;1.30;99.90
45807;DHT22;31507;51.494;7.518;2022-12-05T00:46:49;1.30;99.90
45807;DHT22;31507;51.494;7.518;2022-12-05T00:49:15;1.30;99.90
45807;DHT22;31507;51.494;7.518;2022-12-05T00:51:42;1.30;99.90
45807;DHT22;31507;51.494;7.518;2022-12-05T00:54:14;1.30;99.90
45807;DHT22;31507;51.494;7.518;2022-12-05T00:56:40;1.30;99.90
45807;DHT22;31507;51.494;7.518;2022-12-05T00:59:07;1.30;99.90
45807;DHT22;31507;51.494;7.518;2022-12-05T01:01:38;1.30;99.90
45807;DHT22;31507;51.494;7.518;2022-12-05T01:04:10;1.30;99.90
45807;DHT22;31507;51.494;7.518;2022-12-05T01:06:37;1.30;99.90
45807;DHT22;31507;51.494;7.518;2022-12-05T01:09:03;1.30;99.90
45807;DHT22;31507;51.494;7.518;2022-12-05T01:11:29;1.30;99.90
45807;DHT22;31507;51.494;7.518;2022-12-05T01:13:55;1.30;99.90
45807;DHT22;31507;51.494;7.518;2022-12-05T01:16:30;1.30;99.90
45807;DHT22;31507;51.494;7.518;2022-12-05T01:18:57;1.30;99.90
45807;DHT22;31507;51.494;7.518;2022-12-05T01:21:24;1.30;99.90
45807;DHT22;31507;51.494;7.518;2022-12-05T01:23:50;1.30;99.90
45807;DHT22;31507;51.494;7.518;2022-12-05T01:26:17;1.30;99.90
45807;DHT22;31507;51.494;7.518;2022-12-05T01:28:43;1.30;99.90
45807;DHT22;31507;51.494;7.518;2022-12-05T01:31:27;1.30;99.90
45807;DHT22;31507;51.494;7.518;2022-12-05T01:33:54;1.30;99.90
45807;DHT22;31507;51.494;7.518;2022-12-05T01:36:22;1.30;99.90
45807;DHT22;31507;51.494;7.518;2022-12-05T01:38:48;1.30;99.90
45807;DHT22;31507;51.494;7.518;2022-12-05T01:41:17;1.30;99.90
45807;DHT22;31507;51.494;7.518;2022-12-05T01:46:23;1.30;99.90
45807;DHT22;31507;51.494;7.518;2022-12-05T01:48:52;1.30;99.90
45807;DHT22;31507;51.494;7.518;2022-12-05T01:51:18;1.30;99.90
45807;DHT22;31507;51.494;7.518;2022-12-05T01:53:44;1.30;99.90
45807;DHT22;31507;51.494;7.518;2022-12-05T01:56:12;1.30;99.90
45807;DHT22;31507;51.494;7.518;2022-12-05T01:58:38;1.30;99.90
45807;DHT22;31507;51.494;7.518;2022-12-05T02:01:05;1.30;99.90
45807;DHT22;31507;51.494;7.518;2022-12-05T02:03:31;1.30;99.90
45807;DHT22;31507;51.494;7.518;2022-12-05T02:05:58;1.30;99.90
45807;DHT22;31507;51.494;7.518;2022-12-05T02:08:27;1.30;99.90
45807;DHT22;31507;51.494;7.518;2022-12-05T02:10:55;1.30;99.90
45807;DHT22;31507;51.494;7.518;2022-12-05T02:13:51;1.30;99.90
45807;DHT22;31507;51.494;7.518;2022-12-05T02:22:10;1.30;99.90
45807;DHT22;31507;51.494;7.518;2022-12-05T02:25:09;1.30;99.90
45807;DHT22;31507;51.494;7.518;2022-12-05T02:31:05;1.30;99.90
45807;DHT22;31507;51.494;7.518;2022-12-05T02:33:36;1.30;99.90
45807;DHT22;31507;51.494;7.518;2022-12-05T02:36:16;1.30;99.90
45807;DHT22;31507;51.494;7.518;2022-12-05T02:39:20;1.30;99.90
45807;DHT22;31507;51.494;7.518;2022-12-05T02:41:48;1.30;99.90
45807;DHT22;31507;51.494;7.518;2022-12-05T02:44:31;1.30;99.90
45807;DHT22;31507;51.494;7.518;2022-12-05T02:46:59;1.40;99.90
45807;DHT22;31507;51.494;7.518;2022-12-05T02:49:29;1.40;99.90
45807;DHT22;31507;51.494;7.518;2022-12-05T02:51:57;1.40;99.90
45807;DHT22;31507;51.494;7.518;2022-12-05T02:54:28;1.40;99.90
45807;DHT22;31507;51.494;7.518;2022-12-05T02:56:56;1.40;99.90
45807;DHT22;31507;51.494;7.518;2022-12-05T02:59:22;1.40;99.90
45807;DHT22;31507;51.494;7.518;2022-12-05T03:01:48;1.40;99.90
45807;DHT22;31507;51.494;7.518;2022-12-05T03:04:15;1.40;99.90
45807;DHT22;31507;51.494;7.518;2022-12-05T03:06:49;1.40;99.90
45807;DHT22;31507;51.494;7.518;2022-12-05T03:09:20;1.40;99.90
45807;DHT22;31507;51.494;7.518;2022-12-05T03:11:46;1.40;99.90
45807;DHT22;31507;51.494;7.518;2022-12-05T03:14:24;1.40;99.90
45807;DHT22;31507;51.494;7.518;2022-12-05T03:16:56;1.40;99.90
45807;DHT22;31507;51.494;7.518;2022-12-05T03:19:27;1.40;99.90
45807;DHT22;31507;51.494;7.518;2022-12-05T03:22:07;1.40;99.90
45807;DHT22;31507;51.494;7.518;2022-12-05T03:24:36;1.40;99.90
45807;DHT22;31507;51.494;7.518;2022-12-05T03:27:12;1.40;99.90
45807;DHT22;31507;51.494;7.518;2022-12-05T03:29:41;1.40;99.90
45807;DHT22;31507;51.494;7.518;2022-12-05T03:32:18;1.40;99.90
45807;DHT22;31507;51.494;7.518;2022-12-05T03:43:20;1.40;99.90
45807;DHT22;31507;51.494;7.518;2022-12-05T03:46:03;1.40;99.90
45807;DHT22;31507;51.494;7.518;2022-12-05T03:51:15;1.30;99.90
45807;DHT22;31507;51.494;7.518;2022-12-05T03:54:02;1.30;99.90
45807;DHT22;31507;51.494;7.518;2022-12-05T03:56:34;1.30;99.90
45807;DHT22;31507;51.494;7.518;2022-12-05T04:01:51;1.30;99.90
45807;DHT22;31507;51.494;7.518;2022-12-05T04:04:26;1.30;99.90
45807;DHT22;31507;51.494;7.518;2022-12-05T04:06:55;1.20;99.90
45807;DHT22;31507;51.494;7.518;2022-12-05T04:09:26;1.20;99.90
45807;DHT22;31507;51.494;7.518;2022-12-05T04:11:58;1.10;99.90
45807;DHT22;31507;51.494;7.518;2022-12-05T04:14:43;1.00;99.90
45807;DHT22;31507;51.494;7.518;2022-12-05T04:20:03;1.00;99.90
45807;DHT22;31507;51.494;7.518;2022-12-05T04:22:49;1.00;99.90
45807;DHT22;31507;51.494;7.518;2022-12-05T04:25:16;1.00;99.90
45807;DHT22;31507;51.494;7.518;2022-12-05T04:33:16;0.90;99.90
45807;DHT22;31507;51.494;7.518;2022-12-05T04:35:49;1.00;99.90
45807;DHT22;31507;51.494;7.518;2022-12-05T04:38:25;1.00;99.90
45807;DHT22;31507;51.494;7.518;2022-12-05T04:40:59;0.90;99.90
45807;DHT22;31507;51.494;7.518;2022-12-05T04:43:27;0.90;99.90
45807;DHT22;31507;51.494;7.518;2022-12-05T04:45:55;1.00;99.90
45807;DHT22;31507;51.494;7.518;2022-12-05T04:48:24;1.00;99.90
45807;DHT22;31507;51.494;7.518;2022-12-05T04:50:53;1.00;99.90
45807;DHT22;31507;51.494;7.518;2022-12-05T04:53:20;1.00;99.90
45807;DHT22;31507;51.494;7.518;2022-12-05T04:55:50;1.00;99.90
45807;DHT22;31507;51.494;7.518;2022-12-05T04:58:20;1.00;99.90
45807;DHT22;31507;51.494;7.518;2022-12-05T05:01:22;1.00;99.90
45807;DHT22;31507;51.494;7.518;2022-12-05T05:06:23;1.00;99.90
45807;DHT22;31507;51.494;7.518;2022-12-05T05:08:51;1.10;99.90
45807;DHT22;31507;51.494;7.518;2022-12-05T05:11:18;1.10;99.90
45807;DHT22;31507;51.494;7.518;2022-12-05T05:13:45;1.10;99.90
45807;DHT22;31507;51.494;7.518;2022-12-05T05:16:29;1.10;99.90
45807;DHT22;31507;51.494;7.518;2022-12-05T05:18:55;1.10;99.90
45807;DHT22;31507;51.494;7.518;2022-12-05T05:21:27;1.10;99.90
45807;DHT22;31507;51.494;7.518;2022-12-05T05:23:54;1.10;99.90
45807;DHT22;31507;51.494;7.518;2022-12-05T05:26:20;1.10;99.90
45807;DHT22;31507;51.494;7.518;2022-12-05T05:28:46;1.10;99.90
45807;DHT22;31507;51.494;7.518;2022-12-05T05:31:13;1.10;99.90
45807;DHT22;31507;51.494;7.518;2022-12-05T05:33:38;1.10;99.90
45807;DHT22;31507;51.494;7.518;2022-12-05T05:36:05;1.10;99.90
45807;DHT22;31507;51.494;7.518;2022-12-05T05:38:39;1.00;99.90
45807;DHT22;31507;51.494;7.518;2022-12-05T05:41:10;1.00;99.90
45807;DHT22;31507;51.494;7.518;2022-12-05T05:43:36;0.90;99.90
45807;DHT22;31507;51.494;7.518;2022-12-05T05:46:03;0.90;99.90
45807;DHT22;31507;51.494;7.518;2022-12-05T05:48:30;0.90;99.90
45807;DHT22;31507;51.494;7.518;2022-12-05T05:51:00;0.90;99.90
45807;DHT22;31507;51.494;7.518;2022-12-05T05:53:26;0.90;99.90
45807;DHT22;31507;51.494;7.518;2022-12-05T05:55:51;0.90;99.90
45807;DHT22;31507;51.494;7.518;2022-12-05T05:58:17;0.90;99.90
45807;DHT22;31507;51.494;7.518;2022-12-05T06:00:42;0.90;99.90
45807;DHT22;31507;51.494;7.518;2022-12-05T06:03:08;0.90;99.90
45807;DHT22;31507;51.494;7.518;2022-12-05T06:05:34;0.80;99.90
45807;DHT22;31507;51.494;7.518;2022-12-05T06:08:00;0.80;99.90
45807;DHT22;31507;51.494;7.518;2022-12-05T06:10:25;0.80;99.90
45807;DHT22;31507;51.494;7.518;2022-12-05T06:12:51;0.80;99.90
45807;DHT22;31507;51.494;7.518;2022-12-05T06:15:16;0.80;99.90
45807;DHT22;31507;51.494;7.518;2022-12-05T06:17:42;0.80;99.90
45807;DHT22;31507;51.494;7.518;2022-12-05T06:20:08;0.80;99.90
45807;DHT22;31507;51.494;7.518;2022-12-05T06:22:34;0.70;99.90
45807;DHT22;31507;51.494;7.518;2022-12-05T06:25:00;0.70;99.90
45807;DHT22;31507;51.494;7.518;2022-12-05T06:27:28;0.60;99.90
45807;DHT22;31507;51.494;7.518;2022-12-05T06:29:55;0.60;99.90
45807;DHT22;31507;51.494;7.518;2022-12-05T06:32:21;0.60;99.90
45807;DHT22;31507;51.494;7.518;2022-12-05T06:34:46;0.60;99.90
45807;DHT22;31507;51.494;7.518;2022-12-05T06:37:12;0.50;99.90
45807;DHT22;31507;51.494;7.518;2022-12-05T06:39:37;0.60;99.90
45807;DHT22;31507;51.494;7.518;2022-12-05T06:42:03;0.50;99.90
45807;DHT22;31507;51.494;7.518;2022-12-05T06:44:29;0.50;99.90
45807;DHT22;31507;51.494;7.518;2022-12-05T06:46:55;0.50;99.90
45807;DHT22;31507;51.494;7.518;2022-12-05T06:49:22;0.50;99.90
45807;DHT22;31507;51.494;7.518;2022-12-05T06:51:50;0.50;99.90
45807;DHT22;31507;51.494;7.518;2022-12-05T06:54:16;0.50;99.90
45807;DHT22;31507;51.494;7.518;2022-12-05T06:56:41;0.50;99.90
45807;DHT22;31507;51.494;7.518;2022-12-05T06:59:07;0.40;99.90
45807;DHT22;31507;51.494;7.518;2022-12-05T07:01:33;0.40;99.90
45807;DHT22;31507;51.494;7.518;2022-12-05T07:04:15;0.40;99.90
45807;DHT22;31507;51.494;7.518;2022-12-05T07:06:43;0.40;99.90
45807;DHT22;31507;51.494;7.518;2022-12-05T07:09:09;0.30;99.90
45807;DHT22;31507;51.494;7.518;2022-12-05T07:11:35;0.30;99.90
45807;DHT22;31507;51.494;7.518;2022-12-05T07:14:01;0.30;99.90
45807;DHT22;31507;51.494;7.518;2022-12-05T07:16:27;0.30;99.90
45807;DHT22;31507;51.494;7.518;2022-12-05T07:18:53;0.20;99.90
45807;DHT22;31507;51.494;7.518;2022-12-05T07:21:18;0.10;99.90
45807;DHT22;31507;51.494;7.518;2022-12-05T07:23:47;0.10;99.90
45807;DHT22;31507;51.494;7.518;2022-12-05T07:26:19;0.10;99.90
45807;DHT22;31507;51.494;7.518;2022-12-05T07:28:45;0.10;99.90
45807;DHT22;31507;51.494;7.518;2022-12-05T07:31:16;0.10;99.90
45807;DHT22;31507;51.494;7.518;2022-12-05T07:33:42;0.10;99.90
45807;DHT22;31507;51.494;7.518;2022-12-05T07:36:11;0.10;99.90
45807;DHT22;31507;51.494;7.518;2022-12-05T07:38:37;0.10;99.90
45807;DHT22;31507;51.494;7.518;2022-12-05T07:41:08;0.10;99.90
45807;DHT22;31507;51.494;7.518;2022-12-05T07:43:34;0.10;99.90
45807;DHT22;31507;51.494;7.518;2022-12-05T07:46:04;0.10;99.90
45807;DHT22;31507;51.494;7.518;2022-12-05T07:48:30;0.10;99.90
45807;DHT22;31507;51.494;7.518;2022-12-05T07:51:06;0.10;99.90
45807;DHT22;31507;51.494;7.518;2022-12-05T07:53:32;0.10;99.90
45807;DHT22;31507;51.494;7.518;2022-12-05T07:55:59;0.10;99.90
45807;DHT22;31507;51.494;7.518;2022-12-05T07:58:27;0.10;99.90
45807;DHT22;31507;51.494;7.518;2022-12-05T08:00:53;0.10;99.90
45807;DHT22;31507;51.494;7.518;2022-12-05T08:03:19;0.10;99.90
45807;DHT22;31507;51.494;7.518;2022-12-05T08:05:45;0.10;99.90
45807;DHT22;31507;51.494;7.518;2022-12-05T08:08:10;0.10;99.90
45807;DHT22;31507;51.494;7.518;2022-12-05T08:10:36;0.10;99.90
45807;DHT22;31507;51.494;7.518;2022-12-05T08:13:01;0.10;99.90
45807;DHT22;31507;51.494;7.518;2022-12-05T08:15:27;0.10;99.90
45807;DHT22;31507;51.494;7.518;2022-12-05T08:17:53;0.10;99.90
45807;DHT22;31507;51.494;7.518;2022-12-05T08:20:18;0.10;99.90
45807;DHT22;31507;51.494;7.518;2022-12-05T08:22:44;0.10;99.90
45807;DHT22;31507;51.494;7.518;2022-12-05T08:25:10;0.10;99.90
45807;DHT22;31507;51.494;7.518;2022-12-05T08:27:35;0.20;99.90
45807;DHT22;31507;51.494;7.518;2022-12-05T08:30:01;0.20;99.90
45807;DHT22;31507;51.494;7.518;2022-12-05T08:32:27;0.20;99.90
45807;DHT22;31507;51.494;7.518;2022-12-05T08:34:52;0.20;99.90
45807;DHT22;31507;51.494;7.518;2022-12-05T08:37:18;0.20;99.90
45807;DHT22;31507;51.494;7.518;2022-12-05T08:39:44;0.20;99.90
45807;DHT22;31507;51.494;7.518;2022-12-05T08:42:09;0.20;99.90
45807;DHT22;31507;51.494;7.518;2022-12-05T08:44:35;0.20;99.90
45807;DHT22;31507;51.494;7.518;2022-12-05T08:47:00;0.20;99.90
45807;DHT22;31507;51.494;7.518;2022-12-05T08:49:26;0.30;99.90
45807;DHT22;31507;51.494;7.518;2022-12-05T08:51:52;0.30;99.90
45807;DHT22;31507;51.494;7.518;2022-12-05T08:54:18;0.30;99.90
45807;DHT22;31507;51.494;7.518;2022-12-05T08:56:44;0.30;99.90
45807;DHT22;31507;51.494;7.518;2022-12-05T08:59:10;0.30;99.90
45807;DHT22;31507;51.494;7.518;2022-12-05T09:01:35;0.30;99.90
45807;DHT22;31507;51.494;7.518;2022-12-05T09:04:03;0.30;99.90
45807;DHT22;31507;51.494;7.518;2022-12-05T09:06:31;0.30;99.90
45807;DHT22;31507;51.494;7.518;2022-12-05T09:08:58;0.30;99.90
45807;DHT22;31507;51.494;7.518;2022-12-05T09:11:32;0.40;99.90
45807;DHT22;31507;51.494;7.518;2022-12-05T09:13:59;0.40;99.90
45807;DHT22;31507;51.494;7.518;2022-12-05T09:16:28;0.40;99.90
45807;DHT22;31507;51.494;7.518;2022-12-05T09:18:54;0.40;99.90
45807;DHT22;31507;51.494;7.518;2022-12-05T09:21:23;0.40;99.90
45807;DHT22;31507;51.494;7.518;2022-12-05T09:23:50;0.40;99.90
45807;DHT22;31507;51.494;7.518;2022-12-05T09:26:19;0.40;99.90
45807;DHT22;31507;51.494;7.518;2022-12-05T09:28:45;0.50;99.90
45807;DHT22;31507;51.494;7.518;2022-12-05T09:31:22;0.50;99.90
45807;DHT22;31507;51.494;7.518;2022-12-05T09:33:50;0.60;99.90
45807;DHT22;31507;51.494;7.518;2022-12-05T09:36:24;0.60;99.90
45807;DHT22;31507;51.494;7.518;2022-12-05T09:38:51;0.60;99.90
45807;DHT22;31507;51.494;7.518;2022-12-05T09:44:55;0.60;99.90
45807;DHT22;31507;51.494;7.518;2022-12-05T09:49:59;0.60;99.90
45807;DHT22;31507;51.494;7.518;2022-12-05T09:52:30;0.60;99.90
45807;DHT22;31507;51.494;7.518;2022-12-05T09:55:08;0.60;99.90
45807;DHT22;31507;51.494;7.518;2022-12-05T09:57:39;0.60;99.90
45807;DHT22;31507;51.494;7.518;2022-12-05T10:00:09;0.60;99.90
45807;DHT22;31507;51.494;7.518;2022-12-05T10:03:11;0.60;99.90
45807;DHT22;31507;51.494;7.518;2022-12-05T10:05:48;0.70;99.90
45807;DHT22;31507;51.494;7.518;2022-12-05T10:08:25;0.60;99.90
45807;DHT22;31507;51.494;7.518;2022-12-05T10:11:06;0.70;99.90
45807;DHT22;31507;51.494;7.518;2022-12-05T10:16:25;0.70;99.90
45807;DHT22;31507;51.494;7.518;2022-12-05T10:19:27;0.70;99.90
45807;DHT22;31507;51.494;7.518;2022-12-05T10:21:58;0.80;99.90
45807;DHT22;31507;51.494;7.518;2022-12-05T10:24:36;0.80;99.90
45807;DHT22;31507;51.494;7.518;2022-12-05T10:27:06;0.80;99.90
45807;DHT22;31507;51.494;7.518;2022-12-05T10:29:38;0.80;99.90
45807;DHT22;31507;51.494;7.518;2022-12-05T10:32:13;0.80;99.90
45807;DHT22;31507;51.494;7.518;2022-12-05T10:34:42;0.80;99.90
45807;DHT22;31507;51.494;7.518;2022-12-05T10:37:22;0.90;99.90
45807;DHT22;31507;51.494;7.518;2022-12-05T10:39:49;0.90;99.90
45807;DHT22;31507;51.494;7.518;2022-12-05T10:42:33;0.90;99.90
45807;DHT22;31507;51.494;7.518;2022-12-05T10:45:05;0.90;99.90
45807;DHT22;31507;51.494;7.518;2022-12-05T10:47:32;0.90;99.90
45807;DHT22;31507;51.494;7.518;2022-12-05T10:50:03;0.90;99.90
45807;DHT22;31507;51.494;7.518;2022-12-05T10:52:31;0.90;99.90
45807;DHT22;31507;51.494;7.518;2022-12-05T10:55:02;0.90;99.90
45807;DHT22;31507;51.494;7.518;2022-12-05T10:57:29;0.90;99.90
45807;DHT22;31507;51.494;7.518;2022-12-05T10:59:56;1.00;99.90
45807;DHT22;31507;51.494;7.518;2022-12-05T11:02:25;1.00;99.90
45807;DHT22;31507;51.494;7.518;2022-12-05T11:04:52;1.00;99.90
45807;DHT22;31507;51.494;7.518;2022-12-05T11:07:44;1.00;99.90
45807;DHT22;31507;51.494;7.518;2022-12-05T11:10:35;1.00;99.90
45807;DHT22;31507;51.494;7.518;2022-12-05T11:13:22;1.00;99.90
45807;DHT22;31507;51.494;7.518;2022-12-05T11:15:49;1.00;99.90
45807;DHT22;31507;51.494;7.518;2022-12-05T11:18:33;1.00;99.90
45807;DHT22;31507;51.494;7.518;2022-12-05T11:21:11;0.90;99.90
45807;DHT22;31507;51.494;7.518;2022-12-05T11:23:38;0.90;99.90
45807;DHT22;31507;51.494;7.518;2022-12-05T11:26:15;0.90;99.90
45807;DHT22;31507;51.494;7.518;2022-12-05T11:28:42;0.80;99.90
45807;DHT22;31507;51.494;7.518;2022-12-05T11:33:37;0.80;99.90
45807;DHT22;31507;51.494;7.518;2022-12-05T11:36:31;0.70;99.90
45807;DHT22;31507;51.494;7.518;2022-12-05T11:38:58;0.70;99.90
45807;DHT22;31507;51.494;7.518;2022-12-05T11:47:17;0.60;99.90
45807;DHT22;31507;51.494;7.518;2022-12-05T11:54:56;0.50;99.90
45807;DHT22;31507;51.494;7.518;2022-12-05T12:00:05;0.60;99.90
45807;DHT22;31507;51.494;7.518;2022-12-05T12:05:48;0.50;99.90
45807;DHT22;31507;51.494;7.518;2022-12-05T12:08:23;0.50;99.90
45807;DHT22;31507;51.494;7.518;2022-12-05T12:11:09;0.60;99.90
45807;DHT22;31507;51.494;7.518;2022-12-05T12:16:47;0.50;99.90
45807;DHT22;31507;51.494;7.518;2022-12-05T12:22:21;0.50;99.90
45807;DHT22;31507;51.494;7.518;2022-12-05T12:36:26;0.40;99.90
45807;DHT22;31507;51.494;7.518;2022-12-05T12:40:00;0.40;99.90
45807;DHT22;31507;51.494;7.518;2022-12-05T12:42:27;0.40;99.90
45807;DHT22;31507;51.494;7.518;2022-12-05T12:50:43;0.30;99.90
45807;DHT22;31507;51.494;7.518;2022-12-05T12:56:31;0.40;99.90
45807;DHT22;31507;51.494;7.518;2022-12-05T13:04:36;0.40;99.90
45807;DHT22;31507;51.494;7.518;2022-12-05T13:07:14;0.30;99.90
45807;DHT22;31507;51.494;7.518;2022-12-05T13:09:49;0.40;99.90
45807;DHT22;31507;51.494;7.518;2022-12-05T13:12:23;0.30;99.90
45807;DHT22;31507;51.494;7.518;2022-12-05T13:15:00;0.30;99.90
45807;DHT22;31507;51.494;7.518;2022-12-05T13:17:28;0.30;99.90
45807;DHT22;31507;51.494;7.518;2022-12-05T13:19:57;0.30;99.90
45807;DHT22;31507;51.494;7.518;2022-12-05T13:22:27;0.30;99.90
45807;DHT22;31507;51.494;7.518;2022-12-05T13:24:54;0.20;99.90
45807;DHT22;31507;51.494;7.518;2022-12-05T13:27:25;0.20;99.90
45807;DHT22;31507;51.494;7.518;2022-12-05T13:29:57;0.20;99.90
45807;DHT22;31507;51.494;7.518;2022-12-05T13:32:35;0.20;99.90
45807;DHT22;31507;51.494;7.518;2022-12-05T13:35:23;0.20;99.90
45807;DHT22;31507;51.494;7.518;2022-12-05T13:38:33;0.20;99.90
45807;DHT22;31507;51.494;7.518;2022-12-05T13:41:18;0.20;99.90
45807;DHT22;31507;51.494;7.518;2022-12-05T13:44:06;0.20;99.90
45807;DHT22;31507;51.494;7.518;2022-12-05T13:46:41;0.20;99.90
45807;DHT22;31507;51.494;7.518;2022-12-05T13:49:18;0.20;99.90
45807;DHT22;31507;51.494;7.518;2022-12-05T13:51:45;0.10;99.90
45807;DHT22;31507;51.494;7.518;2022-12-05T13:54:21;0.20;99.90
45807;DHT22;31507;51.494;7.518;2022-12-05T13:56:52;0.20;99.90
45807;DHT22;31507;51.494;7.518;2022-12-05T14:10:14;0.10;99.90
45807;DHT22;31507;51.494;7.518;2022-12-05T14:12:47;0.20;99.90
45807;DHT22;31507;51.494;7.518;2022-12-05T14:17:48;0.10;99.90
45807;DHT22;31507;51.494;7.518;2022-12-05T14:25:33;0.10;99.90
45807;DHT22;31507;51.494;7.518;2022-12-05T14:28:24;0.00;99.90
45807;DHT22;31507;51.494;7.518;2022-12-05T14:33:42;0.00;99.90
45807;DHT22;31507;51.494;7.518;2022-12-05T14:36:15;0.00;99.90
45807;DHT22;31507;51.494;7.518;2022-12-05T14:38:43;0.10;99.90
45807;DHT22;31507;51.494;7.518;2022-12-05T14:41:20;0.00;99.90
45807;DHT22;31507;51.494;7.518;2022-12-05T14:43:52;0.00;99.90
45807;DHT22;31507;51.494;7.518;2022-12-05T14:46:26;0.00;99.90
45807;DHT22;31507;51.494;7.518;2022-12-05T14:48:53;0.00;99.90
45807;DHT22;31507;51.494;7.518;2022-12-05T14:54:14;0.00;99.90
45807;DHT22;31507;51.494;7.518;2022-12-05T14:56:50;0.00;99.90
45807;DHT22;31507;51.494;7.518;2022-12-05T15:01:54;0.00;99.90
45807;DHT22;31507;51.494;7.518;2022-12-05T15:04:30;0.00;99.90
45807;DHT22;31507;51.494;7.518;2022-12-05T15:06:58;0.00;99.90
45807;DHT22;31507;51.494;7.518;2022-12-05T15:09:29;0.00;99.90
45807;DHT22;31507;51.494;7.518;2022-12-05T15:11:56;0.00;99.90
45807;DHT22;31507;51.494;7.518;2022-12-05T15:14:25;0.00;99.90
45807;DHT22;31507;51.494;7.518;2022-12-05T15:16:53;0.00;99.90
45807;DHT22;31507;51.494;7.518;2022-12-05T15:19:24;0.00;99.90
45807;DHT22;31507;51.494;7.518;2022-12-05T15:21:57;0.00;99.90
45807;DHT22;31507;51.494;7.518;2022-12-05T15:24:24;0.00;99.90
45807;DHT22;31507;51.494;7.518;2022-12-05T15:26:57;0.00;99.90
45807;DHT22;31507;51.494;7.518;2022-12-05T15:29:27;0.00;99.90
45807;DHT22;31507;51.494;7.518;2022-12-05T15:32:24;-0.10;99.90
45807;DHT22;31507;51.494;7.518;2022-12-05T15:35:01;0.00;99.90
45807;DHT22;31507;51.494;7.518;2022-12-05T15:37:46;0.00;99.90
45807;DHT22;31507;51.494;7.518;2022-12-05T15:40:16;0.00;99.90
45807;DHT22;31507;51.494;7.518;2022-12-05T15:42:51;0.00;99.90
45807;DHT22;31507;51.494;7.518;2022-12-05T15:45:24;0.00;99.90
45807;DHT22;31507;51.494;7.518;2022-12-05T15:47:54;0.00;99.90
45807;DHT22;31507;51.494;7.518;2022-12-05T15:50:37;0.00;99.90
45807;DHT22;31507;51.494;7.518;2022-12-05T15:53:30;0.00;99.90
45807;DHT22;31507;51.494;7.518;2022-12-05T15:56:18;0.00;99.90
45807;DHT22;31507;51.494;7.518;2022-12-05T15:59:03;0.00;99.90
45807;DHT22;31507;51.494;7.518;2022-12-05T16:01:34;0.00;99.90
45807;DHT22;31507;51.494;7.518;2022-12-05T16:04:29;0.00;99.90
45807;DHT22;31507;51.494;7.518;2022-12-05T16:06:58;0.00;99.90
45807;DHT22;31507;51.494;7.518;2022-12-05T16:09:30;0.00;99.90
45807;DHT22;31507;51.494;7.518;2022-12-05T16:12:01;0.00;99.90
45807;DHT22;31507;51.494;7.518;2022-12-05T16:14:33;0.00;99.90
45807;DHT22;31507;51.494;7.518;2022-12-05T16:17:00;0.00;99.90
45807;DHT22;31507;51.494;7.518;2022-12-05T16:19:27;0.00;99.90
45807;DHT22;31507;51.494;7.518;2022-12-05T16:22:20;0.00;99.90
45807;DHT22;31507;51.494;7.518;2022-12-05T16:24:52;0.00;99.90
45807;DHT22;31507;51.494;7.518;2022-12-05T16:32:42;0.10;99.90
45807;DHT22;31507;51.494;7.518;2022-12-05T16:35:35;0.00;99.90
45807;DHT22;31507;51.494;7.518;2022-12-05T16:38:09;0.00;99.90
45807;DHT22;31507;51.494;7.518;2022-12-05T16:40:36;0.00;99.90
45807;DHT22;31507;51.494;7.518;2022-12-05T16:43:05;0.00;99.90
45807;DHT22;31507;51.494;7.518;2022-12-05T16:45:42;0.00;99.90
45807;DHT22;31507;51.494;7.518;2022-12-05T16:48:35;0.00;99.90
45807;DHT22;31507;51.494;7.518;2022-12-05T16:51:14;0.00;99.90
45807;DHT22;31507;51.494;7.518;2022-12-05T16:53:48;0.00;99.90
45807;DHT22;31507;51.494;7.518;2022-12-05T16:58:41;0.00;99.90
45807;DHT22;31507;51.494;7.518;2022-12-05T17:01:15;0.00;99.90
45807;DHT22;31507;51.494;7.518;2022-12-05T17:03:42;0.00;99.90
45807;DHT22;31507;51.494;7.518;2022-12-05T17:06:08;0.00;99.90
45807;DHT22;31507;51.494;7.518;2022-12-05T17:08:33;0.00;99.90
45807;DHT22;31507;51.494;7.518;2022-12-05T17:10:59;0.00;99.90
45807;DHT22;31507;51.494;7.518;2022-12-05T17:13:27;0.00;99.90
45807;DHT22;31507;51.494;7.518;2022-12-05T17:15:53;0.00;99.90
45807;DHT22;31507;51.494;7.518;2022-12-05T17:18:20;-0.10;99.90
45807;DHT22;31507;51.494;7.518;2022-12-05T17:20:52;0.00;99.90
45807;DHT22;31507;51.494;7.518;2022-12-05T17:23:18;0.00;99.90
45807;DHT22;31507;51.494;7.518;2022-12-05T17:25:48;0.00;99.90
45807;DHT22;31507;51.494;7.518;2022-12-05T17:28:14;0.00;99.90
45807;DHT22;31507;51.494;7.518;2022-12-05T17:30:40;0.00;99.90
45807;DHT22;31507;51.494;7.518;2022-12-05T17:33:09;0.00;99.90
45807;DHT22;31507;51.494;7.518;2022-12-05T17:35:35;0.00;99.90
45807;DHT22;31507;51.494;7.518;2022-12-05T17:38:03;0.00;99.90
45807;DHT22;31507;51.494;7.518;2022-12-05T17:40:30;0.00;99.90
45807;DHT22;31507;51.494;7.518;2022-12-05T17:42:56;0.00;99.90
45807;DHT22;31507;51.494;7.518;2022-12-05T17:45:21;0.00;99.90
45807;DHT22;31507;51.494;7.518;2022-12-05T17:47:47;0.00;99.90
45807;DHT22;31507;51.494;7.518;2022-12-05T17:50:15;0.00;99.90
45807;DHT22;31507;51.494;7.518;2022-12-05T17:52:41;0.00;99.90
45807;DHT22;31507;51.494;7.518;2022-12-05T17:55:20;0.00;99.90
45807;DHT22;31507;51.494;7.518;2022-12-05T17:57:46;0.00;99.90
45807;DHT22;31507;51.494;7.518;2022-12-05T18:00:14;0.00;99.90
45807;DHT22;31507;51.494;7.518;2022-12-05T18:02:44;0.00;99.90
45807;DHT22;31507;51.494;7.518;2022-12-05T18:05:11;0.00;99.90
45807;DHT22;31507;51.494;7.518;2022-12-05T18:07:40;0.00;99.90
45807;DHT22;31507;51.494;7.518;2022-12-05T18:10:08;0.00;99.90
45807;DHT22;31507;51.494;7.518;2022-12-05T18:12:34;0.00;99.90
45807;DHT22;31507;51.494;7.518;2022-12-05T18:15:00;0.00;99.90
45807;DHT22;31507;51.494;7.518;2022-12-05T18:17:26;0.10;99.90
45807;DHT22;31507;51.494;7.518;2022-12-05T18:19:53;0.00;99.90